Time;durP1;ratioP1;P1;durP2;ratioP2;P2;SDS_P1;SDS_P2;PMS_P1;PMS_P2;Temp;Humidity;BMP_temperature;BMP_pressure;BME280_temperature;BME280_humidity;BME280_pressure;Samples;Min_cycle;Max_cycle;Signal;HPM_P1;HPM_P2
2023/08/28 00:00:18;;;;;;;4.55;2.50;;;;;;;;;;6317545;28;20293;-69
2023/08/28 00:03:22;;;;;;;2.95;2.80;;;;;;;;;;6316592;28;20298;-72
2023/08/28 00:06:26;;;;;;;3.15;2.90;;;;;;;;;;6334584;28;20294;-69
2023/08/28 00:09:30;;;;;;;3.10;2.90;;;;;;;;;;6335896;28;20552;-67
2023/08/28 00:12:40;;;;;;;3.42;2.90;;;;;;;;;;6346189;28;20297;-68
2023/08/28 00:15:44;;;;;;;3.35;3.08;;;;;;;;;;6335480;28;20438;-69
2023/08/28 00:18:47;;;;;;;2.85;2.75;;;;;;;;;;6334700;28;20301;-69
2023/08/28 00:21:52;;;;;;;3.00;2.80;;;;;;;;;;6334490;28;20481;-68
2023/08/28 00:24:55;;;;;;;3.65;3.28;;;;;;;;;;6334971;28;20286;-69
2023/08/28 00:28:01;;;;;;;3.33;2.90;;;;;;;;;;6333960;28;20309;-68
2023/08/28 00:31:04;;;;;;;3.40;2.70;;;;;;;;;;6316187;28;20483;-70
2023/08/28 00:34:08;;;;;;;3.05;2.85;;;;;;;;;;6335268;28;20298;-69
2023/08/28 00:37:12;;;;;;;3.65;3.28;;;;;;;;;;6316019;28;20479;-69
2023/08/28 00:40:16;;;;;;;4.72;3.35;;;;;;;;;;6334821;28;20293;-69
2023/08/28 00:43:21;;;;;;;2.97;2.88;;;;;;;;;;6315531;28;20310;-68
2023/08/28 00:46:25;;;;;;;3.25;2.80;;;;;;;;;;6334353;28;20285;-68
2023/08/28 00:49:30;;;;;;;3.05;2.85;;;;;;;;;;6316182;28;20293;-70
2023/08/28 00:52:34;;;;;;;2.83;2.72;;;;;;;;;;6316281;28;20293;-70
2023/08/28 00:55:38;;;;;;;3.35;3.15;;;;;;;;;;6317147;28;20452;-69
2023/08/28 00:58:43;;;;;;;4.63;3.05;;;;;;;;;;6334293;28;20465;-69
2023/08/28 01:01:47;;;;;;;3.90;2.60;;;;;;;;;;6315947;28;20454;-68
2023/08/28 01:04:52;;;;;;;2.95;2.75;;;;;;;;;;6307478;28;20418;-68
2023/08/28 01:08:01;;;;;;;2.83;2.60;;;;;;;;;;6307704;28;20295;-69
2023/08/28 01:11:11;;;;;;;2.55;2.45;;;;;;;;;;6318838;28;20286;-68
2023/08/28 01:14:21;;;;;;;8.75;3.17;;;;;;;;;;6308132;28;20275;-69
2023/08/28 01:17:25;;;;;;;2.90;2.70;;;;;;;;;;6307329;28;20469;-71
2023/08/28 01:20:30;;;;;;;2.63;2.50;;;;;;;;;;6307448;28;20298;-68
2023/08/28 01:23:39;;;;;;;3.63;2.70;;;;;;;;;;6306475;28;20449;-68
2023/08/28 01:26:45;;;;;;;3.38;2.97;;;;;;;;;;6308943;28;20579;-70
2023/08/28 01:30:07;;;;;;;2.83;2.55;;;;;;;;;;6309394;28;20449;-70
2023/08/28 01:33:11;;;;;;;2.78;2.67;;;;;;;;;;6290081;28;20298;-69
2023/08/28 01:36:22;;;;;;;3.47;3.05;;;;;;;;;;6308299;28;20293;-70
2023/08/28 01:39:30;;;;;;;2.80;2.70;;;;;;;;;;6307690;28;20294;-68
2023/08/28 01:42:35;;;;;;;2.40;2.30;;;;;;;;;;6308607;28;20291;-69
2023/08/28 01:45:40;;;;;;;3.42;2.80;;;;;;;;;;6308982;28;20361;-70
2023/08/28 01:48:46;;;;;;;2.90;2.80;;;;;;;;;;6306750;28;20423;-68
2023/08/28 01:51:50;;;;;;;2.95;2.78;;;;;;;;;;6306997;28;20290;-70
2023/08/28 01:54:53;;;;;;;3.08;2.75;;;;;;;;;;6307397;28;20615;-70
2023/08/28 01:58:00;;;;;;;4.13;3.08;;;;;;;;;;6306863;28;20607;-69
2023/08/28 02:01:04;;;;;;;2.65;2.50;;;;;;;;;;6308100;28;20298;-69
2023/08/28 02:04:09;;;;;;;2.90;2.75;;;;;;;;;;6310337;28;20357;-69
2023/08/28 02:07:13;;;;;;;3.40;3.10;;;;;;;;;;6311213;28;20290;-70
2023/08/28 02:10:17;;;;;;;3.22;3.05;;;;;;;;;;6320126;28;20295;-70
2023/08/28 02:13:22;;;;;;;3.17;3.08;;;;;;;;;;6317254;28;20291;-69
2023/08/28 02:16:27;;;;;;;4.75;2.88;;;;;;;;;;6310878;28;20287;-68
2023/08/28 02:19:31;;;;;;;2.95;2.75;;;;;;;;;;6312470;28;20398;-68
2023/08/28 02:22:35;;;;;;;3.20;2.90;;;;;;;;;;6310954;28;20294;-68
2023/08/28 02:25:41;;;;;;;2.90;2.80;;;;;;;;;;6312549;28;20354;-69
2023/08/28 02:28:47;;;;;;;3.13;2.92;;;;;;;;;;6310958;28;20471;-70
2023/08/28 02:31:51;;;;;;;3.13;2.92;;;;;;;;;;6310539;28;20312;-69
2023/08/28 02:34:54;;;;;;;3.40;3.20;;;;;;;;;;6312632;28;20451;-69
2023/08/28 02:37:58;;;;;;;3.20;3.10;;;;;;;;;;6310435;28;20302;-69
2023/08/28 02:41:04;;;;;;;3.15;2.97;;;;;;;;;;6309109;28;20293;-71
2023/08/28 02:44:09;;;;;;;3.50;3.30;;;;;;;;;;6312057;28;20247;-68
2023/08/28 02:47:15;;;;;;;3.30;3.10;;;;;;;;;;6311695;28;20286;-70
2023/08/28 02:50:20;;;;;;;3.10;3.05;;;;;;;;;;6312080;28;20235;-69
2023/08/28 02:53:24;;;;;;;3.30;3.08;;;;;;;;;;6311732;28;20294;-69
2023/08/28 02:56:35;;;;;;;3.35;3.17;;;;;;;;;;6309747;28;20294;-67
2023/08/28 02:59:40;;;;;;;3.00;2.80;;;;;;;;;;6310299;28;20295;-69
2023/08/28 03:02:44;;;;;;;5.00;3.42;;;;;;;;;;6326997;28;20575;-69
2023/08/28 03:05:48;;;;;;;3.78;3.35;;;;;;;;;;6314711;28;20298;-68
2023/08/28 03:08:52;;;;;;;3.78;3.47;;;;;;;;;;6311482;28;20294;-68
2023/08/28 03:11:56;;;;;;;3.15;3.05;;;;;;;;;;6293535;28;20598;-69
2023/08/28 03:15:01;;;;;;;4.57;3.08;;;;;;;;;;6310584;28;20574;-68
2023/08/28 03:18:06;;;;;;;4.45;3.42;;;;;;;;;;6310947;28;20290;-69
2023/08/28 03:21:09;;;;;;;3.58;3.38;;;;;;;;;;6335464;28;20322;-68
2023/08/28 03:24:13;;;;;;;3.60;3.03;;;;;;;;;;6334053;28;20293;-69
2023/08/28 03:27:17;;;;;;;4.35;3.80;;;;;;;;;;6334679;28;20293;-69
2023/08/28 03:30:22;;;;;;;3.88;3.58;;;;;;;;;;6335694;28;20297;-68
2023/08/28 03:33:26;;;;;;;4.30;4.00;;;;;;;;;;6335824;28;20302;-69
2023/08/28 03:36:30;;;;;;;6.13;4.30;;;;;;;;;;6326279;28;20290;-70
2023/08/28 03:39:34;;;;;;;4.50;4.10;;;;;;;;;;6310514;28;20293;-69
2023/08/28 03:42:38;;;;;;;4.50;4.20;;;;;;;;;;6309757;28;20298;-69
2023/08/28 03:45:43;;;;;;;6.25;4.95;;;;;;;;;;6311788;28;20318;-69
2023/08/28 03:48:47;;;;;;;5.00;4.35;;;;;;;;;;6309476;28;20294;-69
2023/08/28 03:51:51;;;;;;;6.75;4.60;;;;;;;;;;6310656;28;20302;-68
2023/08/28 03:54:55;;;;;;;7.82;4.90;;;;;;;;;;6310381;28;20294;-69
2023/08/28 03:58:00;;;;;;;10.23;5.15;;;;;;;;;;6308524;28;20441;-69
2023/08/28 04:01:05;;;;;;;10.45;5.25;;;;;;;;;;6310442;28;20298;-69
2023/08/28 04:04:09;;;;;;;7.60;5.50;;;;;;;;;;6309466;28;20374;-69
2023/08/28 04:07:23;;;;;;;5.30;4.88;;;;;;;;;;6308597;28;20571;-71
2023/08/28 04:10:30;;;;;;;6.13;5.47;;;;;;;;;;6316905;28;20294;-68
2023/08/28 04:13:35;;;;;;;7.40;5.38;;;;;;;;;;6310599;28;20329;-69
2023/08/28 04:16:40;;;;;;;11.18;5.13;;;;;;;;;;6308933;28;20286;-69
2023/08/28 04:19:44;;;;;;;7.63;5.18;;;;;;;;;;6309805;28;20346;-68
2023/08/28 04:22:48;;;;;;;5.68;5.18;;;;;;;;;;6308294;28;20298;-69
2023/08/28 04:25:52;;;;;;;6.72;4.90;;;;;;;;;;6308313;28;20294;-71
2023/08/28 04:28:55;;;;;;;4.40;4.20;;;;;;;;;;6307883;28;20293;-69
2023/08/28 04:32:01;;;;;;;5.03;4.63;;;;;;;;;;6308301;28;20539;-68
2023/08/28 04:35:06;;;;;;;4.70;4.40;;;;;;;;;;6289737;28;20294;-68
2023/08/28 04:38:10;;;;;;;4.63;4.47;;;;;;;;;;6307489;28;20302;-69
2023/08/28 04:41:14;;;;;;;4.93;4.65;;;;;;;;;;6308169;28;20546;-69
2023/08/28 04:44:18;;;;;;;4.45;4.25;;;;;;;;;;6307940;28;20594;-68
2023/08/28 04:47:24;;;;;;;4.85;4.50;;;;;;;;;;6309892;28;20293;-69
2023/08/28 04:50:27;;;;;;;4.47;4.15;;;;;;;;;;6307532;28;20286;-68
2023/08/28 04:53:31;;;;;;;4.25;3.95;;;;;;;;;;6309242;28;20302;-68
2023/08/28 04:56:35;;;;;;;4.40;4.10;;;;;;;;;;6309198;28;20293;-68
2023/08/28 04:59:39;;;;;;;4.40;4.20;;;;;;;;;;6307432;28;20309;-68
2023/08/28 05:02:44;;;;;;;4.15;3.85;;;;;;;;;;6308995;28;20290;-69
2023/08/28 05:05:49;;;;;;;4.05;3.80;;;;;;;;;;6310395;28;20303;-68
2023/08/28 05:08:53;;;;;;;5.45;4.00;;;;;;;;;;6285942;28;20291;-67
2023/08/28 05:11:57;;;;;;;3.88;3.55;;;;;;;;;;6297177;28;20315;-69
2023/08/28 05:15:02;;;;;;;3.95;3.50;;;;;;;;;;6290982;28;20286;-68
2023/08/28 05:18:11;;;;;;;4.28;3.70;;;;;;;;;;6306924;28;20484;-68
2023/08/28 05:21:16;;;;;;;4.63;4.30;;;;;;;;;;6291523;28;20358;-68
2023/08/28 05:24:20;;;;;;;3.80;3.60;;;;;;;;;;6308337;28;20290;-68
2023/08/28 05:27:24;;;;;;;4.07;3.63;;;;;;;;;;6307914;28;20455;-69
2023/08/28 05:30:27;;;;;;;3.55;3.35;;;;;;;;;;6290163;28;20286;-70
2023/08/28 05:33:34;;;;;;;3.70;3.55;;;;;;;;;;6290878;28;20303;-69
2023/08/28 05:36:38;;;;;;;3.88;3.58;;;;;;;;;;6309101;28;20502;-68
2023/08/28 05:39:42;;;;;;;3.47;3.28;;;;;;;;;;6312658;28;20299;-69
2023/08/28 05:42:46;;;;;;;3.13;2.90;;;;;;;;;;6313694;28;20286;-69
2023/08/28 05:45:50;;;;;;;3.53;3.05;;;;;;;;;;6311659;28;20286;-69
2023/08/28 05:48:55;;;;;;;3.40;3.20;;;;;;;;;;6311163;28;20294;-68
2023/08/28 05:51:59;;;;;;;3.92;3.50;;;;;;;;;;6312358;28;20571;-69
2023/08/28 05:55:03;;;;;;;3.20;3.00;;;;;;;;;;6312812;28;20297;-69
2023/08/28 05:58:08;;;;;;;3.25;3.00;;;;;;;;;;6294827;28;20302;-69
2023/08/28 06:01:12;;;;;;;3.05;2.90;;;;;;;;;;6295302;28;20290;-69
2023/08/28 06:04:17;;;;;;;3.58;2.95;;;;;;;;;;6310634;28;20302;-68
2023/08/28 06:07:21;;;;;;;3.58;3.38;;;;;;;;;;6294284;28;20287;-68
2023/08/28 06:10:25;;;;;;;2.85;2.72;;;;;;;;;;6312155;28;20467;-68
2023/08/28 06:13:28;;;;;;;3.15;2.80;;;;;;;;;;6286713;28;20302;-69
2023/08/28 06:16:33;;;;;;;2.80;2.70;;;;;;;;;;6286292;28;20290;-68
2023/08/28 06:19:38;;;;;;;3.13;3.03;;;;;;;;;;6287245;28;20298;-67
2023/08/28 06:22:43;;;;;;;2.83;2.72;;;;;;;;;;6287847;28;20311;-68
2023/08/28 06:25:47;;;;;;;3.25;2.97;;;;;;;;;;6285520;28;20322;-67
2023/08/28 06:28:51;;;;;;;3.65;3.35;;;;;;;;;;6286893;28;20307;-68
2023/08/28 06:31:56;;;;;;;2.90;2.80;;;;;;;;;;6286259;28;20295;-69
2023/08/28 06:35:02;;;;;;;3.78;2.95;;;;;;;;;;6287235;28;20302;-68
2023/08/28 06:38:05;;;;;;;2.70;2.60;;;;;;;;;;6286417;28;20286;-69
2023/08/28 06:41:09;;;;;;;3.00;2.90;;;;;;;;;;6287064;28;20239;-68
2023/08/28 06:44:13;;;;;;;3.47;2.75;;;;;;;;;;6288052;28;20303;-68
2023/08/28 06:47:18;;;;;;;3.28;2.97;;;;;;;;;;6310120;28;20231;-67
2023/08/28 06:50:23;;;;;;;2.65;2.55;;;;;;;;;;6286013;28;20303;-69
2023/08/28 06:53:26;;;;;;;2.90;2.70;;;;;;;;;;6286372;28;20295;-69
2023/08/28 06:56:30;;;;;;;2.75;2.55;;;;;;;;;;6286966;28;20403;-68
2023/08/28 06:59:34;;;;;;;2.42;2.30;;;;;;;;;;6286551;28;20338;-68
2023/08/28 07:02:38;;;;;;;3.00;2.63;;;;;;;;;;6287213;28;20516;-69
2023/08/28 07:05:43;;;;;;;4.47;2.50;;;;;;;;;;6301002;28;20308;-67
2023/08/28 07:08:47;;;;;;;2.40;2.30;;;;;;;;;;6286559;28;20387;-67
2023/08/28 07:11:51;;;;;;;2.92;2.28;;;;;;;;;;6306556;28;20289;-70
2023/08/28 07:15:22;;;;;;;2.67;2.05;;;;;;;;;;6311291;28;20298;-68
2023/08/28 07:18:26;;;;;;;2.70;2.50;;;;;;;;;;6310623;28;20286;-67
2023/08/28 07:21:31;;;;;;;2.10;2.10;;;;;;;;;;6311536;28;20580;-68
2023/08/28 07:24:35;;;;;;;2.42;2.22;;;;;;;;;;6310415;28;20314;-67
2023/08/28 07:27:38;;;;;;;2.38;2.28;;;;;;;;;;6311298;28;20289;-68
2023/08/28 07:30:43;;;;;;;2.42;2.22;;;;;;;;;;6310736;28;20321;-69
2023/08/28 07:33:46;;;;;;;2.42;2.35;;;;;;;;;;6310407;28;20314;-68
2023/08/28 07:36:52;;;;;;;2.40;2.30;;;;;;;;;;6311053;28;20290;-68
2023/08/28 07:39:56;;;;;;;3.33;2.45;;;;;;;;;;6310282;28;20290;-68
2023/08/28 07:43:00;;;;;;;2.70;2.58;;;;;;;;;;6310345;28;20334;-68
2023/08/28 07:46:04;;;;;;;2.70;2.50;;;;;;;;;;6292474;28;20294;-68
2023/08/28 07:49:08;;;;;;;2.20;2.10;;;;;;;;;;6310422;28;20293;-68
2023/08/28 07:52:13;;;;;;;2.65;2.55;;;;;;;;;;6310748;28;20479;-68
2023/08/28 07:55:17;;;;;;;2.47;2.38;;;;;;;;;;6310252;28;20303;-68
2023/08/28 07:58:21;;;;;;;2.90;2.35;;;;;;;;;;6309622;28;20286;-68
2023/08/28 08:01:25;;;;;;;3.05;2.75;;;;;;;;;;6310326;28;20290;-68
2023/08/28 08:04:28;;;;;;;2.67;2.47;;;;;;;;;;6310052;28;20301;-68
2023/08/28 08:07:34;;;;;;;2.63;2.53;;;;;;;;;;6310703;28;20294;-68
2023/08/28 08:10:38;;;;;;;3.08;2.88;;;;;;;;;;6293249;28;20294;-68
2023/08/28 08:13:42;;;;;;;2.67;2.60;;;;;;;;;;6309394;28;20290;-68
2023/08/28 08:16:46;;;;;;;3.13;2.35;;;;;;;;;;6292290;28;20294;-68
2023/08/28 08:19:49;;;;;;;2.97;2.78;;;;;;;;;;6309603;28;20521;-68
2023/08/28 08:22:54;;;;;;;3.10;2.40;;;;;;;;;;6309624;28;20297;-69
2023/08/28 08:25:59;;;;;;;2.83;2.30;;;;;;;;;;6310026;28;20607;-69
2023/08/28 08:29:03;;;;;;;2.70;2.50;;;;;;;;;;6308717;28;20310;-69
2023/08/28 08:32:08;;;;;;;3.22;2.60;;;;;;;;;;6310071;28;20503;-68
2023/08/28 08:35:12;;;;;;;2.17;2.17;;;;;;;;;;6309572;28;20298;-68
2023/08/28 08:38:19;;;;;;;2.38;2.20;;;;;;;;;;6309156;28;20286;-69
2023/08/28 08:41:23;;;;;;;2.63;2.10;;;;;;;;;;6309754;28;20290;-69
2023/08/28 08:44:27;;;;;;;2.35;2.25;;;;;;;;;;6309181;28;20298;-69
2023/08/28 08:47:31;;;;;;;2.45;2.35;;;;;;;;;;6309629;28;20302;-69
2023/08/28 08:50:36;;;;;;;2.15;2.13;;;;;;;;;;6309033;28;20286;-69
2023/08/28 08:53:44;;;;;;;2.17;2.17;;;;;;;;;;6309015;28;20286;-69
2023/08/28 08:56:51;;;;;;;2.90;2.70;;;;;;;;;;6309568;28;20302;-69
2023/08/28 08:59:55;;;;;;;2.45;2.35;;;;;;;;;;6309164;28;20362;-70
2023/08/28 09:03:00;;;;;;;2.50;2.40;;;;;;;;;;6308658;28;20611;-69
2023/08/28 09:06:06;;;;;;;1.83;1.83;;;;;;;;;;6309321;28;20294;-69
2023/08/28 09:09:12;;;;;;;3.70;2.05;;;;;;;;;;6309108;28;20295;-69
2023/08/28 09:12:16;;;;;;;2.67;2.15;;;;;;;;;;6309809;28;20294;-69
2023/08/28 09:15:21;;;;;;;1.80;1.70;;;;;;;;;;6314232;28;20314;-69
2023/08/28 09:18:25;;;;;;;3.13;1.48;;;;;;;;;;6313916;28;20285;-69
2023/08/28 09:21:34;;;;;;;1.80;1.67;;;;;;;;;;6314418;28;20460;-68
2023/08/28 09:24:40;;;;;;;1.70;1.60;;;;;;;;;;6313777;28;20294;-68
2023/08/28 09:27:45;;;;;;;1.40;1.40;;;;;;;;;;6315185;28;20286;-68
2023/08/28 09:30:49;;;;;;;2.35;1.65;;;;;;;;;;6338506;28;20298;-68
2023/08/28 09:33:53;;;;;;;1.70;1.67;;;;;;;;;;6338615;28;20293;-69
2023/08/28 09:37:10;;;;;;;1.60;1.60;;;;;;;;;;6339169;28;20298;-68
2023/08/28 09:40:16;;;;;;;1.70;1.70;;;;;;;;;;6338433;28;20297;-69
2023/08/28 09:43:20;;;;;;;2.33;1.60;;;;;;;;;;6338478;28;20540;-69
2023/08/28 09:46:23;;;;;;;1.60;1.60;;;;;;;;;;6338737;28;20297;-69
2023/08/28 09:49:27;;;;;;;1.48;1.48;;;;;;;;;;6338432;28;20346;-69
2023/08/28 09:52:31;;;;;;;1.73;1.50;;;;;;;;;;6338851;28;20286;-68
2023/08/28 09:55:40;;;;;;;1.50;1.50;;;;;;;;;;6338061;28;20428;-67
2023/08/28 09:58:49;;;;;;;1.70;1.60;;;;;;;;;;6319396;28;20290;-67
2023/08/28 10:01:53;;;;;;;4.97;1.40;;;;;;;;;;6338224;28;20384;-68
2023/08/28 10:04:59;;;;;;;1.67;1.58;;;;;;;;;;6337814;28;20369;-68
2023/08/28 10:08:04;;;;;;;1.33;1.33;;;;;;;;;;6311801;28;20274;-70
2023/08/28 10:11:09;;;;;;;1.13;1.13;;;;;;;;;;6311195;28;20266;-68
2023/08/28 10:14:13;;;;;;;1.33;1.27;;;;;;;;;;6312132;28;20559;-68
2023/08/28 10:17:18;;;;;;;1.13;1.13;;;;;;;;;;6312690;28;20238;-68
2023/08/28 10:20:26;;;;;;;1.27;1.27;;;;;;;;;;6312363;28;20310;-68
2023/08/28 10:23:30;;;;;;;2.75;1.25;;;;;;;;;;6311826;28;20298;-71
2023/08/28 10:26:36;;;;;;;1.13;1.13;;;;;;;;;;6311764;28;20294;-69
2023/08/28 10:29:40;;;;;;;1.45;1.40;;;;;;;;;;6311625;28;20561;-68
2023/08/28 10:32:44;;;;;;;1.50;1.50;;;;;;;;;;6294164;28;20464;-68
2023/08/28 10:35:51;;;;;;;1.55;1.45;;;;;;;;;;6285119;28;20304;-68
2023/08/28 10:38:55;;;;;;;1.45;1.40;;;;;;;;;;6294600;28;20583;-68
2023/08/28 10:42:05;;;;;;;1.52;1.38;;;;;;;;;;6312345;28;20298;-68
2023/08/28 10:45:09;;;;;;;2.25;1.38;;;;;;;;;;6309947;28;20302;-68
2023/08/28 10:48:16;;;;;;;1.27;1.27;;;;;;;;;;6311326;28;20294;-67
2023/08/28 10:51:20;;;;;;;1.67;1.60;;;;;;;;;;6312816;28;20584;-69
2023/08/28 10:54:24;;;;;;;1.20;1.20;;;;;;;;;;6312174;28;20282;-69
2023/08/28 10:57:29;;;;;;;2.97;1.20;;;;;;;;;;6312126;28;20293;-69
2023/08/28 11:00:35;;;;;;;3.40;1.50;;;;;;;;;;6311480;28;20299;-68
2023/08/28 11:03:56;;;;;;;1.65;1.30;;;;;;;;;;6309516;28;20291;-68
2023/08/28 11:07:00;;;;;;;2.22;1.30;;;;;;;;;;6336831;28;20594;-67
2023/08/28 11:10:18;;;;;;;1.27;1.27;;;;;;;;;;6341186;28;20281;-69
2023/08/28 11:13:24;;;;;;;1.38;1.27;;;;;;;;;;6340719;28;20291;-68
2023/08/28 11:16:28;;;;;;;1.15;1.15;;;;;;;;;;6336831;28;20298;-68
2023/08/28 11:19:32;;;;;;;1.60;1.50;;;;;;;;;;6336012;28;20297;-68
2023/08/28 11:22:37;;;;;;;1.88;1.35;;;;;;;;;;6336435;28;20301;-67
2023/08/28 11:25:41;;;;;;;2.33;1.60;;;;;;;;;;6335330;28;20305;-68
2023/08/28 11:28:47;;;;;;;1.65;1.52;;;;;;;;;;6317302;28;20481;-68
2023/08/28 11:31:52;;;;;;;1.13;1.13;;;;;;;;;;6335955;28;20293;-68
2023/08/28 11:34:59;;;;;;;1.40;1.40;;;;;;;;;;6335738;28;20305;-68
2023/08/28 11:38:03;;;;;;;1.30;1.30;;;;;;;;;;6316339;28;20294;-68
2023/08/28 11:41:08;;;;;;;1.30;1.30;;;;;;;;;;6335984;28;20242;-68
2023/08/28 11:44:13;;;;;;;2.17;1.30;;;;;;;;;;6335106;28;20562;-68
2023/08/28 11:47:24;;;;;;;1.50;1.13;;;;;;;;;;6317547;28;20443;-68
2023/08/28 11:50:28;;;;;;;1.30;1.30;;;;;;;;;;6335227;28;20404;-68
2023/08/28 11:53:33;;;;;;;1.50;1.45;;;;;;;;;;6334843;28;20557;-69
2023/08/28 11:56:38;;;;;;;1.20;1.20;;;;;;;;;;6335771;28;20297;-68
2023/08/28 11:59:44;;;;;;;4.88;1.30;;;;;;;;;;6334698;28;20570;-68
2023/08/28 12:02:49;;;;;;;1.08;1.08;;;;;;;;;;6334575;28;20562;-71
2023/08/28 12:06:01;;;;;;;1.17;1.17;;;;;;;;;;6335341;28;20301;-68
2023/08/28 12:09:05;;;;;;;1.60;1.50;;;;;;;;;;6335042;28;20298;-68
2023/08/28 12:12:09;;;;;;;1.33;1.25;;;;;;;;;;6347054;28;20590;-68
2023/08/28 12:15:14;;;;;;;1.80;1.20;;;;;;;;;;6334979;28;20431;-68
2023/08/28 12:18:18;;;;;;;1.27;1.27;;;;;;;;;;6335549;28;20290;-69
2023/08/28 12:21:34;;;;;;;1.95;1.10;;;;;;;;;;6335062;28;20294;-68
2023/08/28 12:24:42;;;;;;;2.83;1.13;;;;;;;;;;6334194;28;20290;-69
2023/08/28 12:27:45;;;;;;;2.88;1.50;;;;;;;;;;6334849;28;20293;-69
2023/08/28 12:30:55;;;;;;;2.10;1.90;;;;;;;;;;6334019;28;20293;-68
2023/08/28 12:34:06;;;;;;;3.70;1.50;;;;;;;;;;6334356;28;20301;-68
2023/08/28 12:37:11;;;;;;;1.45;1.40;;;;;;;;;;6334691;28;20559;-67
2023/08/28 12:40:16;;;;;;;5.75;1.60;;;;;;;;;;6315685;28;20321;-68
2023/08/28 12:43:21;;;;;;;1.60;1.50;;;;;;;;;;6333812;28;20582;-69
2023/08/28 12:46:26;;;;;;;6.60;1.80;;;;;;;;;;6334874;28;20575;-72
2023/08/28 12:49:30;;;;;;;1.92;1.65;;;;;;;;;;6333663;28;20298;-70
2023/08/28 12:52:34;;;;;;;1.15;1.08;;;;;;;;;;6334676;28;20305;-68
2023/08/28 12:55:38;;;;;;;2.45;1.20;;;;;;;;;;6334140;28;20449;-68
2023/08/28 12:58:41;;;;;;;1.10;0.90;;;;;;;;;;6333762;28;20298;-70
2023/08/28 13:01:47;;;;;;;1.77;1.73;;;;;;;;;;6334303;28;20506;-69
2023/08/28 13:04:50;;;;;;;1.60;1.48;;;;;;;;;;6333410;28;20603;-69
2023/08/28 13:07:54;;;;;;;1.35;1.35;;;;;;;;;;6333715;28;20317;-69
2023/08/28 13:10:58;;;;;;;3.03;1.42;;;;;;;;;;6346334;28;20293;-67
2023/08/28 13:14:03;;;;;;;3.58;1.60;;;;;;;;;;6332665;28;20354;-68
2023/08/28 13:17:08;;;;;;;2.35;1.40;;;;;;;;;;6334071;28;20231;-68
2023/08/28 13:20:13;;;;;;;1.30;1.30;;;;;;;;;;6333673;28;20290;-68
2023/08/28 13:23:17;;;;;;;1.67;1.60;;;;;;;;;;6333526;28;20290;-69
2023/08/28 13:26:21;;;;;;;1.15;1.15;;;;;;;;;;6316068;28;20432;-68
2023/08/28 13:29:25;;;;;;;1.33;1.23;;;;;;;;;;6333762;28;20289;-68
2023/08/28 13:32:30;;;;;;;1.33;1.33;;;;;;;;;;6334307;28;20289;-67
2023/08/28 13:35:35;;;;;;;3.08;1.27;;;;;;;;;;6333524;28;20298;-67
2023/08/28 13:38:39;;;;;;;2.78;1.60;;;;;;;;;;6333529;28;20455;-69
2023/08/28 13:41:43;;;;;;;1.67;1.40;;;;;;;;;;6334596;28;20297;-68
2023/08/28 13:44:47;;;;;;;5.35;1.60;;;;;;;;;;6315482;28;20289;-67
2023/08/28 13:47:52;;;;;;;5.57;1.23;;;;;;;;;;6333129;28;20314;-68
2023/08/28 13:50:56;;;;;;;1.50;1.40;;;;;;;;;;6333851;28;20297;-69
2023/08/28 13:54:00;;;;;;;1.75;1.40;;;;;;;;;;6333509;28;20289;-68
2023/08/28 13:57:04;;;;;;;1.60;1.38;;;;;;;;;;6334189;28;20293;-68
2023/08/28 14:00:12;;;;;;;1.50;1.40;;;;;;;;;;6336346;28;20570;-68
2023/08/28 14:03:19;;;;;;;2.15;1.50;;;;;;;;;;6338011;28;20293;-68
2023/08/28 14:06:23;;;;;;;1.20;1.20;;;;;;;;;;6310796;28;20298;-68
2023/08/28 14:09:27;;;;;;;2.78;1.42;;;;;;;;;;6312495;28;20301;-69
2023/08/28 14:12:31;;;;;;;1.20;1.20;;;;;;;;;;6326351;28;20504;-69
2023/08/28 14:15:35;;;;;;;1.40;1.40;;;;;;;;;;6337509;28;20590;-69
2023/08/28 14:18:40;;;;;;;1.20;1.20;;;;;;;;;;6337228;28;20562;-67
2023/08/28 14:21:44;;;;;;;2.10;1.45;;;;;;;;;;6338187;28;20574;-67
2023/08/28 14:24:47;;;;;;;1.85;1.42;;;;;;;;;;6337555;28;20539;-68
2023/08/28 14:27:54;;;;;;;1.55;1.45;;;;;;;;;;6337136;28;20322;-68
2023/08/28 14:31:18;;;;;;;2.97;1.20;;;;;;;;;;6337710;28;20295;-68
2023/08/28 14:34:23;;;;;;;1.30;1.30;;;;;;;;;;6337023;28;20297;-68
2023/08/28 14:37:27;;;;;;;1.33;1.33;;;;;;;;;;6337565;28;20320;-68
2023/08/28 14:40:32;;;;;;;1.40;1.40;;;;;;;;;;6336862;28;20286;-68
2023/08/28 14:43:49;;;;;;;1.58;1.40;;;;;;;;;;6336675;28;20302;-67
2023/08/28 14:46:52;;;;;;;1.40;1.38;;;;;;;;;;6337409;28;20295;-69
2023/08/28 14:49:58;;;;;;;1.50;1.50;;;;;;;;;;6336572;28;20323;-68
2023/08/28 14:53:01;;;;;;;1.20;1.20;;;;;;;;;;6336583;28;20290;-69
2023/08/28 14:56:06;;;;;;;1.77;1.40;;;;;;;;;;6337064;28;20246;-68
2023/08/28 14:59:09;;;;;;;1.55;1.52;;;;;;;;;;6336706;28;20423;-68
2023/08/28 15:02:14;;;;;;;1.38;1.38;;;;;;;;;;6337007;28;20250;-68
2023/08/28 15:05:20;;;;;;;1.40;1.40;;;;;;;;;;6350194;28;20304;-68
2023/08/28 15:08:24;;;;;;;4.32;1.80;;;;;;;;;;6361976;28;20298;-68
2023/08/28 15:11:27;;;;;;;2.60;1.50;;;;;;;;;;6330965;28;20288;-67
2023/08/28 15:14:31;;;;;;;4.57;2.33;;;;;;;;;;6362034;28;20289;-66
2023/08/28 15:17:35;;;;;;;2.47;1.55;;;;;;;;;;6343764;28;20297;-66
2023/08/28 15:20:40;;;;;;;1.73;1.63;;;;;;;;;;6361298;28;20292;-67
2023/08/28 15:23:44;;;;;;;1.88;1.60;;;;;;;;;;6361463;28;20305;-68
2023/08/28 15:26:48;;;;;;;2.20;2.10;;;;;;;;;;6361919;28;20292;-66
2023/08/28 15:29:57;;;;;;;2.40;2.20;;;;;;;;;;6361192;28;20542;-67
2023/08/28 15:33:01;;;;;;;1.67;1.50;;;;;;;;;;6360971;28;20288;-67
2023/08/28 15:36:07;;;;;;;3.58;1.52;;;;;;;;;;6361777;28;20289;-66
2023/08/28 15:39:14;;;;;;;2.38;1.40;;;;;;;;;;6361269;28;20462;-67
2023/08/28 15:42:18;;;;;;;1.65;1.60;;;;;;;;;;6361337;28;20316;-67
2023/08/28 15:45:22;;;;;;;1.60;1.60;;;;;;;;;;6360548;28;20297;-68
2023/08/28 15:48:26;;;;;;;1.95;1.55;;;;;;;;;;6360648;28;20364;-67
2023/08/28 15:51:31;;;;;;;1.52;1.50;;;;;;;;;;6361045;28;20340;-68
2023/08/28 15:54:34;;;;;;;1.67;1.67;;;;;;;;;;6360591;28;20570;-68
2023/08/28 15:57:38;;;;;;;2.53;1.75;;;;;;;;;;6360655;28;20300;-67
2023/08/28 16:00:42;;;;;;;1.65;1.65;;;;;;;;;;6360516;28;20296;-67
2023/08/28 16:03:46;;;;;;;1.90;1.90;;;;;;;;;;6359756;28;20289;-67
2023/08/28 16:06:51;;;;;;;1.50;1.50;;;;;;;;;;6360682;28;20288;-67
2023/08/28 16:09:56;;;;;;;2.00;2.00;;;;;;;;;;6359952;28;20459;-67
2023/08/28 16:13:00;;;;;;;4.68;4.35;;;;;;;;;;6342163;28;20505;-69
2023/08/28 16:16:04;;;;;;;14.57;10.15;;;;;;;;;;6335556;28;20341;-69
2023/08/28 16:19:09;;;;;;;22.15;13.63;;;;;;;;;;6334941;28;20285;-68
2023/08/28 16:22:14;;;;;;;31.00;17.35;;;;;;;;;;6334205;28;20311;-68
2023/08/28 16:25:18;;;;;;;11.85;8.40;;;;;;;;;;6334627;28;20297;-68
2023/08/28 16:28:21;;;;;;;3.78;3.50;;;;;;;;;;6334270;28;20575;-68
2023/08/28 16:31:25;;;;;;;2.80;2.80;;;;;;;;;;6335002;28;20301;-68
2023/08/28 16:34:29;;;;;;;1.45;1.45;;;;;;;;;;6334589;28;20297;-68
2023/08/28 16:37:34;;;;;;;6.18;1.95;;;;;;;;;;6334213;28;20344;-70
2023/08/28 16:40:38;;;;;;;1.85;1.83;;;;;;;;;;6334349;28;20293;-68
2023/08/28 16:43:42;;;;;;;1.42;1.38;;;;;;;;;;6334243;28;20341;-68
2023/08/28 16:46:46;;;;;;;1.50;1.40;;;;;;;;;;6334856;28;20293;-68
2023/08/28 16:49:49;;;;;;;8.70;1.80;;;;;;;;;;6334026;28;20484;-68
2023/08/28 16:52:54;;;;;;;1.92;1.35;;;;;;;;;;6333534;28;20289;-68
2023/08/28 16:55:58;;;;;;;1.60;1.50;;;;;;;;;;6334538;28;20297;-68
2023/08/28 16:59:02;;;;;;;2.45;1.40;;;;;;;;;;6332959;28;20293;-68
2023/08/28 17:02:06;;;;;;;1.48;1.40;;;;;;;;;;6334277;28;20246;-69
2023/08/28 17:05:10;;;;;;;1.70;1.40;;;;;;;;;;6333935;28;20301;-69
2023/08/28 17:08:15;;;;;;;1.38;1.38;;;;;;;;;;6333822;28;20284;-67
2023/08/28 17:11:19;;;;;;;2.42;1.30;;;;;;;;;;6345963;28;20265;-68
2023/08/28 17:14:23;;;;;;;2.45;1.33;;;;;;;;;;6333485;28;20286;-68
2023/08/28 17:17:26;;;;;;;1.20;1.20;;;;;;;;;;6333932;28;20281;-67
2023/08/28 17:20:31;;;;;;;1.38;1.27;;;;;;;;;;6315337;28;20289;-68
2023/08/28 17:23:36;;;;;;;1.45;1.45;;;;;;;;;;6333315;28;20299;-69
2023/08/28 17:26:40;;;;;;;1.40;1.40;;;;;;;;;;6334088;28;20297;-69
2023/08/28 17:29:44;;;;;;;1.55;1.42;;;;;;;;;;6333231;28;20578;-67
2023/08/28 17:32:48;;;;;;;2.80;1.65;;;;;;;;;;6334081;28;20289;-69
2023/08/28 17:35:52;;;;;;;1.80;1.80;;;;;;;;;;6337733;28;20304;-69
2023/08/28 17:39:11;;;;;;;7.13;2.00;;;;;;;;;;6338738;28;20289;-70
2023/08/28 17:42:15;;;;;;;3.40;1.60;;;;;;;;;;6339037;28;20297;-69
2023/08/28 17:45:18;;;;;;;2.10;1.90;;;;;;;;;;6338226;28;20328;-68
2023/08/28 17:48:22;;;;;;;1.55;1.55;;;;;;;;;;6337810;28;20317;-68
2023/08/28 17:51:26;;;;;;;1.60;1.50;;;;;;;;;;6338321;28;20297;-67
2023/08/28 17:54:31;;;;;;;5.28;1.85;;;;;;;;;;6337901;28;20285;-70
2023/08/28 17:57:35;;;;;;;2.30;2.30;;;;;;;;;;6338503;28;20301;-68
2023/08/28 18:00:39;;;;;;;4.47;4.20;;;;;;;;;;6338928;28;20429;-69
2023/08/28 18:03:43;;;;;;;3.05;2.95;;;;;;;;;;6337450;28;20302;-68
2023/08/28 18:06:47;;;;;;;3.75;2.60;;;;;;;;;;6338394;28;20294;-68
2023/08/28 18:09:52;;;;;;;3.13;2.20;;;;;;;;;;6340936;28;20306;-67
2023/08/28 18:12:56;;;;;;;1.92;1.70;;;;;;;;;;6345629;28;20285;-68
2023/08/28 18:16:08;;;;;;;1.50;1.50;;;;;;;;;;6338355;28;20333;-68
2023/08/28 18:19:12;;;;;;;3.65;2.33;;;;;;;;;;6337615;28;20462;-69
2023/08/28 18:22:16;;;;;;;3.67;2.30;;;;;;;;;;6338064;28;20301;-67
2023/08/28 18:25:22;;;;;;;4.72;2.00;;;;;;;;;;6337442;28;20285;-66
2023/08/28 18:28:25;;;;;;;2.33;2.00;;;;;;;;;;6337333;28;20431;-68